createdAt,value
2019-04-07T00:00:09.594Z,71.80
2019-04-07T00:02:38.575Z,71.40
2019-04-07T00:05:13.640Z,73.20
2019-04-07T00:07:37.840Z,72.50
2019-04-07T00:10:08.455Z,73.30
2019-04-07T00:12:37.003Z,72.60
2019-04-07T00:15:06.299Z,71.30
2019-04-07T00:17:34.768Z,71.60
2019-04-07T00:20:04.200Z,73.00
2019-04-07T00:22:32.717Z,74.10
2019-04-07T00:25:01.896Z,73.80
2019-04-07T00:27:31.017Z,75.40
2019-04-07T00:30:00.002Z,75.00
2019-04-07T00:32:28.516Z,76.00
2019-04-07T00:35:23.270Z,76.80
2019-04-07T00:37:46.705Z,76.30
2019-04-07T00:40:15.234Z,76.20
2019-04-07T00:42:43.697Z,77.80
2019-04-07T00:45:12.124Z,76.90
2019-04-07T00:47:40.584Z,77.40
2019-04-07T00:50:09.030Z,78.60
2019-04-07T00:52:40.253Z,82.20
2019-04-07T00:55:13.038Z,78.00
2019-04-07T00:57:41.757Z,80.00
2019-04-07T01:00:11.824Z,80.90
2019-04-07T01:02:41.306Z,81.70
2019-04-07T01:05:10.479Z,81.80
2019-04-07T01:07:39.014Z,81.20
2019-04-07T01:10:07.447Z,80.50
2019-04-07T01:12:35.915Z,82.50
2019-04-07T01:15:07.633Z,82.50
2019-04-07T01:17:37.185Z,82.00
2019-04-07T01:20:08.896Z,82.00
2019-04-07T01:22:37.448Z,82.50
2019-04-07T01:25:07.138Z,80.30
2019-04-07T01:27:35.838Z,80.80
2019-04-07T01:30:23.678Z,79.90
2019-04-07T01:32:52.205Z,80.30
2019-04-07T01:35:21.268Z,81.60
2019-04-07T01:37:49.734Z,82.80
2019-04-07T01:40:18.421Z,82.70
2019-04-07T01:42:51.307Z,81.70
2019-04-07T01:45:38.135Z,81.70
2019-04-07T01:48:08.813Z,82.50
2019-04-07T01:50:53.978Z,82.20
2019-04-07T01:53:24.502Z,82.00
2019-04-07T01:55:57.614Z,82.90
2019-04-07T01:58:35.567Z,82.90
2019-04-07T02:01:08.451Z,82.30
2019-04-07T02:04:01.736Z,83.50
2019-04-07T02:06:44.134Z,84.10
2019-04-07T02:09:20.561Z,83.60
2019-04-07T02:11:53.841Z,82.80
2019-04-07T02:14:39.406Z,82.90
2019-04-07T02:17:09.794Z,80.20
2019-04-07T02:19:45.953Z,81.70
2019-04-07T02:22:28.041Z,81.60
2019-04-07T02:25:24.179Z,80.60
2019-04-07T02:28:11.015Z,81.50
2019-04-07T02:30:41.563Z,81.40
2019-04-07T02:33:18.164Z,80.20
2019-04-07T02:36:12.084Z,80.80
2019-04-07T02:38:29.529Z,81.70
2019-04-07T02:41:10.635Z,81.90
2019-04-07T02:44:22.115Z,81.00
2019-04-07T02:46:58.854Z,80.60
2019-04-07T02:49:32.431Z,80.40
2019-04-07T02:52:05.802Z,79.90
2019-04-07T02:54:36.088Z,79.10
2019-04-07T02:57:06.432Z,79.70
2019-04-07T02:59:53.441Z,80.70
2019-04-07T03:02:30.344Z,81.50
2019-04-07T03:05:13.796Z,83.00
2019-04-07T03:07:53.160Z,83.80
2019-04-07T03:10:26.076Z,83.60
2019-04-07T03:13:14.652Z,82.50
2019-04-07T03:15:54.582Z,83.80
2019-04-07T03:19:04.504Z,84.00
2019-04-07T03:21:40.529Z,81.40
2019-04-07T03:24:11.215Z,82.90
2019-04-07T03:26:47.850Z,83.70
2019-04-07T03:29:20.490Z,82.40
2019-04-07T03:32:00.068Z,82.30
2019-04-07T03:34:38.204Z,83.70
2019-04-07T03:37:23.013Z,82.90
2019-04-07T03:39:42.604Z,83.70
2019-04-07T03:42:24.915Z,84.90
2019-04-07T03:44:55.032Z,84.80
2019-04-07T03:47:32.063Z,85.00
2019-04-07T03:50:08.856Z,83.70
2019-04-07T03:52:39.378Z,82.60
2019-04-07T03:55:24.655Z,82.00
2019-04-07T03:58:01.573Z,81.10
2019-04-07T04:01:01.392Z,81.60
2019-04-07T04:03:32.249Z,79.90
2019-04-07T04:06:14.172Z,80.40
2019-04-07T04:08:50.941Z,79.10
2019-04-07T04:11:21.110Z,80.50
2019-04-07T04:13:58.057Z,78.50
2019-04-07T04:16:27.150Z,78.10
2019-04-07T04:18:55.653Z,76.90
2019-04-07T04:21:24.260Z,76.50
2019-04-07T04:23:53.053Z,76.70
2019-04-07T04:26:21.554Z,75.20
2019-04-07T04:28:50.686Z,75.80
2019-04-07T04:31:19.591Z,75.50
2019-04-07T04:33:48.556Z,77.70
2019-04-07T04:36:17.747Z,77.00
2019-04-07T04:38:46.309Z,78.20
2019-04-07T04:42:05.651Z,79.10
2019-04-07T04:44:34.127Z,78.80
2019-04-07T04:47:02.837Z,78.80
2019-04-07T04:49:31.328Z,79.00
2019-04-07T04:52:00.428Z,79.00
2019-04-07T04:54:35.598Z,78.60
2019-04-07T04:57:06.199Z,78.70
2019-04-07T04:59:34.134Z,78.40
2019-04-07T05:02:02.713Z,78.70
2019-04-07T05:04:31.856Z,78.30
2019-04-07T05:07:01.373Z,78.60
2019-04-07T05:09:43.220Z,78.30
2019-04-07T05:12:00.072Z,77.30
2019-04-07T05:14:28.534Z,77.60
2019-04-07T05:16:56.969Z,76.50
2019-04-07T05:19:26.218Z,76.40
2019-04-07T05:21:54.807Z,75.90
2019-04-07T05:24:23.228Z,75.10
2019-04-07T05:26:51.895Z,74.70
2019-04-07T05:29:20.413Z,73.50
2019-04-07T05:31:49.198Z,73.90
2019-04-07T05:34:20.415Z,72.80
2019-04-07T05:36:47.864Z,71.90
2019-04-07T05:39:16.541Z,71.70
2019-04-07T05:41:45.039Z,71.20
2019-04-07T05:44:13.546Z,70.10
2019-04-07T05:46:42.531Z,69.20
2019-04-07T05:49:31.384Z,69.60
2019-04-07T05:52:04.026Z,69.40
2019-04-07T05:54:30.045Z,68.70
2019-04-07T05:57:01.171Z,68.00
2019-04-07T05:59:28.753Z,67.50
2019-04-07T06:02:01.251Z,67.00
2019-04-07T06:04:28.146Z,66.50
2019-04-07T06:06:56.790Z,66.20
2019-04-07T06:09:25.257Z,64.40
2019-04-07T06:11:54.427Z,64.80
2019-04-07T06:14:24.301Z,63.20
2019-04-07T06:16:55.162Z,64.10
2019-04-07T06:19:22.971Z,63.70
2019-04-07T06:21:51.644Z,62.90
2019-04-07T06:24:22.226Z,63.10
2019-04-07T06:26:50.428Z,62.70
2019-04-07T06:29:19.906Z,61.90
2019-04-07T06:31:49.841Z,60.00
2019-04-07T06:34:18.560Z,61.20
2019-04-07T06:36:51.782Z,60.20
2019-04-07T06:39:18.843Z,60.90
2019-04-07T06:41:47.641Z,61.70
2019-04-07T06:44:19.890Z,61.10
2019-04-07T06:46:48.007Z,61.40
2019-04-07T06:49:18.077Z,60.50
2019-04-07T06:52:04.916Z,61.20
2019-04-07T06:54:37.769Z,59.80
2019-04-07T06:57:08.444Z,57.40
2019-04-07T06:59:45.646Z,56.60
2019-04-07T07:02:19.626Z,55.10
2019-04-07T07:05:05.200Z,53.50
2019-04-07T07:07:35.730Z,52.00
2019-04-07T07:10:11.630Z,52.30
2019-04-07T07:12:50.802Z,50.80
2019-04-07T07:15:20.971Z,50.30
2019-04-07T07:17:59.017Z,48.10
2019-04-07T07:20:30.181Z,48.80
2019-04-07T07:23:00.778Z,47.20
2019-04-07T07:25:31.288Z,47.20
2019-04-07T07:27:59.947Z,47.00
2019-04-07T07:32:59.679Z,45.60
2019-04-07T07:35:28.766Z,45.40
2019-04-07T07:37:59.479Z,45.60
2019-04-07T07:40:27.548Z,44.90
2019-04-07T07:42:59.525Z,45.50
2019-04-07T07:45:28.361Z,46.20
2019-04-07T07:47:57.648Z,47.90
2019-04-07T07:50:31.747Z,48.10
2019-04-07T07:53:01.403Z,46.80
2019-04-07T07:55:33.844Z,47.50
2019-04-07T07:58:04.055Z,48.90
2019-04-07T08:00:32.049Z,48.10
2019-04-07T08:03:02.011Z,48.70
2019-04-07T08:05:33.348Z,49.00
2019-04-07T08:08:02.125Z,49.60
2019-04-07T08:10:30.603Z,49.70
2019-04-07T08:12:59.661Z,50.00
2019-04-07T08:15:32.110Z,48.70
2019-04-07T08:18:07.030Z,48.80
2019-04-07T08:20:33.921Z,49.40
2019-04-07T08:23:08.028Z,49.20
2019-04-07T08:25:37.834Z,48.60
2019-04-07T08:28:08.185Z,50.00
2019-04-07T08:30:39.388Z,49.60
2019-04-07T08:33:09.383Z,50.30
2019-04-07T08:35:39.758Z,50.10
2019-04-07T08:38:08.820Z,49.20
2019-04-07T08:40:38.391Z,49.00
2019-04-07T08:43:11.479Z,48.80
2019-04-07T08:45:42.480Z,48.60
2019-04-07T08:48:11.565Z,47.20
2019-04-07T08:50:41.048Z,48.20
2019-04-07T08:53:12.283Z,49.10
2019-04-07T08:55:40.525Z,47.50
2019-04-07T08:58:23.592Z,49.10
2019-04-07T09:00:46.508Z,48.20
2019-04-07T09:03:16.447Z,46.60
2019-04-07T09:05:50.293Z,46.10
2019-04-07T09:08:19.169Z,46.50
2019-04-07T09:10:59.367Z,47.10
2019-04-07T09:13:29.765Z,47.80
2019-04-07T09:16:05.706Z,46.80
2019-04-07T09:19:00.647Z,48.10
2019-04-07T09:24:20.393Z,47.90
2019-04-07T09:26:51.428Z,46.80
2019-04-07T09:29:45.395Z,45.90
2019-04-07T09:32:29.088Z,47.30
2019-04-07T09:35:16.659Z,47.10
2019-04-07T09:37:55.993Z,48.00
2019-04-07T09:40:27.807Z,47.30
2019-04-07T09:43:00.995Z,47.20
2019-04-07T09:45:46.996Z,46.10
2019-04-07T09:48:35.426Z,47.90
2019-04-07T09:51:09.148Z,47.20
2019-04-07T09:53:44.841Z,46.50
2019-04-07T09:56:27.251Z,47.40
2019-04-07T09:58:56.809Z,44.90
2019-04-07T10:01:37.024Z,45.70
2019-04-07T10:04:16.762Z,46.70
2019-04-07T10:06:53.791Z,45.30
2019-04-07T10:10:07.408Z,45.10
2019-04-07T10:12:41.407Z,41.90
2019-04-07T10:15:28.546Z,40.10
2019-04-07T10:18:02.665Z,38.70
2019-04-07T10:20:51.428Z,40.70
2019-04-07T10:23:34.212Z,39.90
2019-04-07T10:26:10.233Z,40.50
2019-04-07T10:28:44.086Z,43.30
2019-04-07T10:31:20.888Z,42.30
2019-04-07T10:33:57.236Z,40.40
2019-04-07T10:39:13.005Z,38.30
2019-04-07T10:41:55.740Z,40.70
2019-04-07T10:44:26.075Z,41.00
2019-04-07T10:47:08.420Z,41.50
2019-04-07T10:50:01.545Z,39.20
2019-04-07T10:52:45.896Z,38.00
2019-04-07T10:55:16.910Z,37.10
2019-04-07T10:58:04.283Z,36.90
2019-04-07T11:00:51.060Z,37.00
2019-04-07T11:03:24.937Z,36.20
2019-04-07T11:05:55.438Z,34.90
2019-04-07T11:08:27.230Z,33.10
2019-04-07T11:11:14.608Z,33.30
2019-04-07T11:13:47.912Z,35.90
2019-04-07T11:16:21.777Z,31.30
2019-04-07T11:19:07.797Z,32.20
2019-04-07T11:21:55.589Z,31.80
2019-04-07T11:24:44.330Z,29.80
2019-04-07T11:27:21.132Z,29.20
2019-04-07T11:30:00.910Z,30.70
2019-04-07T11:32:37.686Z,30.50
2019-04-07T11:35:19.776Z,31.20
2019-04-07T11:37:50.388Z,29.00
2019-04-07T11:40:41.507Z,28.80
2019-04-07T11:43:03.264Z,31.30
2019-04-07T11:45:53.228Z,29.10
2019-04-07T11:48:39.425Z,29.20
2019-04-07T11:54:07.658Z,29.20
2019-04-07T11:56:44.233Z,28.30
2019-04-07T11:59:14.899Z,29.10
2019-04-07T12:01:57.367Z,27.10
2019-04-07T12:04:29.534Z,26.90
2019-04-07T12:10:08.316Z,25.90
2019-04-07T12:12:42.016Z,27.50
2019-04-07T12:15:29.138Z,27.10
2019-04-07T12:18:03.735Z,25.80
2019-04-07T12:20:36.188Z,26.10
2019-04-07T12:23:27.140Z,28.50
2019-04-07T12:26:06.187Z,28.60
2019-04-07T12:28:52.492Z,30.30
2019-04-07T12:31:24.959Z,27.30
2019-04-07T12:33:58.430Z,27.90
2019-04-07T12:36:32.127Z,30.00
2019-04-07T12:39:02.942Z,30.40
2019-04-07T12:41:43.687Z,30.40
2019-04-07T12:44:23.409Z,31.40
2019-04-07T12:47:09.215Z,31.50
2019-04-07T12:49:45.517Z,32.70
2019-04-07T12:52:32.531Z,30.80
2019-04-07T12:55:03.068Z,32.10
2019-04-07T12:57:39.805Z,32.70
2019-04-07T13:00:15.723Z,32.80
2019-04-07T13:02:55.508Z,33.10
2019-04-07T13:05:34.618Z,33.60
2019-04-07T13:08:07.087Z,34.90
2019-04-07T13:11:11.016Z,34.40
2019-04-07T13:14:22.555Z,35.70
2019-04-07T13:19:50.312Z,34.10
2019-04-07T13:22:37.663Z,30.40
2019-04-07T13:25:09.106Z,29.00
2019-04-07T13:27:42.747Z,31.30
2019-04-07T13:30:25.938Z,33.80
2019-04-07T13:33:20.227Z,33.80
2019-04-07T13:35:51.856Z,33.00
2019-04-07T13:38:22.578Z,32.60
2019-04-07T13:41:06.302Z,33.00
2019-04-07T13:43:42.530Z,32.10
2019-04-07T13:46:22.042Z,35.00
2019-04-07T13:48:49.673Z,36.80
2019-04-07T13:54:33.592Z,36.20
2019-04-07T13:57:12.696Z,37.10
2019-04-07T13:59:44.086Z,37.10
2019-04-07T14:04:52.707Z,35.70
2019-04-07T14:07:23.933Z,36.20
2019-04-07T14:10:14.440Z,36.40
2019-04-07T14:13:05.359Z,35.50
2019-04-07T14:15:34.939Z,35.70
2019-04-07T14:18:08.966Z,37.20
2019-04-07T14:20:45.126Z,37.20
2019-04-07T14:23:24.090Z,36.90
2019-04-07T14:26:12.546Z,36.40
2019-04-07T14:28:54.480Z,36.50
2019-04-07T14:31:25.158Z,37.10
2019-04-07T14:34:11.793Z,38.10
2019-04-07T14:36:44.639Z,39.30
2019-04-07T14:39:31.440Z,39.10
2019-04-07T14:42:07.319Z,39.60
2019-04-07T14:44:36.953Z,39.50
2019-04-07T14:47:07.696Z,39.50
2019-04-07T14:49:55.068Z,40.30
2019-04-07T14:52:35.973Z,40.30
2019-04-07T14:55:21.406Z,41.20
2019-04-07T14:57:57.242Z,40.50
2019-04-07T15:00:45.998Z,40.70
2019-04-07T15:03:21.586Z,40.80
2019-04-07T15:05:55.195Z,39.70
2019-04-07T15:08:32.955Z,40.50
2019-04-07T15:11:03.208Z,40.00
2019-04-07T15:13:32.395Z,39.90
2019-04-07T15:16:00.804Z,40.40
2019-04-07T15:18:29.772Z,41.30
2019-04-07T15:20:59.294Z,41.30
2019-04-07T15:23:31.664Z,41.60
2019-04-07T15:25:58.945Z,41.80
2019-04-07T15:28:29.732Z,41.80
2019-04-07T15:30:57.484Z,42.20
2019-04-07T15:33:25.926Z,41.70
2019-04-07T15:35:54.570Z,41.80
2019-04-07T15:38:26.723Z,42.10
2019-04-07T15:40:53.216Z,41.80
2019-04-07T15:43:22.331Z,42.20
2019-04-07T15:45:54.642Z,42.80
2019-04-07T15:48:25.730Z,42.10
2019-04-07T15:50:54.031Z,43.40
2019-04-07T15:53:56.554Z,43.10
2019-04-07T15:56:24.992Z,43.10
2019-04-07T15:58:53.446Z,42.90
2019-04-07T16:01:21.889Z,42.60
2019-04-07T16:03:59.231Z,42.50
2019-04-07T16:06:28.127Z,42.00
2019-04-07T16:08:58.835Z,44.10
2019-04-07T16:11:28.744Z,43.50
2019-04-07T16:13:56.749Z,43.30
2019-04-07T16:16:28.455Z,44.30
2019-04-07T16:18:55.301Z,44.20
2019-04-07T16:21:24.155Z,44.80
2019-04-07T16:23:54.188Z,44.30
2019-04-07T16:26:30.170Z,45.20
2019-04-07T16:28:58.341Z,45.20
2019-04-07T16:31:27.147Z,44.90
2019-04-07T16:33:57.108Z,46.10
2019-04-07T16:36:26.402Z,47.00
2019-04-07T16:41:44.596Z,46.20
2019-04-07T16:44:19.310Z,45.30
2019-04-07T16:46:47.718Z,44.60
2019-04-07T16:49:18.936Z,44.70
2019-04-07T16:51:47.564Z,44.90
2019-04-07T16:54:16.384Z,44.90
2019-04-07T16:56:45.508Z,44.90
2019-04-07T16:59:14.062Z,45.20
2019-04-07T17:01:43.339Z,45.20
2019-04-07T17:04:12.655Z,45.50
2019-04-07T17:06:46.311Z,45.10
2019-04-07T17:09:18.162Z,45.00
2019-04-07T17:11:47.162Z,46.10
2019-04-07T17:14:35.768Z,45.50
2019-04-07T17:17:03.657Z,47.00
2019-04-07T17:19:32.243Z,46.20
2019-04-07T17:22:01.829Z,47.70
2019-04-07T17:24:30.583Z,47.20
2019-04-07T17:27:04.566Z,47.80
2019-04-07T17:29:33.137Z,47.70
2019-04-07T17:32:02.809Z,47.90
2019-04-07T17:34:32.565Z,47.30
2019-04-07T17:37:01.124Z,46.90
2019-04-07T17:39:31.530Z,47.10
2019-04-07T17:42:00.399Z,47.10
2019-04-07T17:44:41.837Z,46.70
2019-04-07T17:47:18.043Z,47.30
2019-04-07T17:49:56.655Z,48.30
2019-04-07T17:52:58.326Z,48.60
2019-04-07T17:58:36.731Z,50.00
2019-04-07T18:01:12.640Z,49.10
2019-04-07T18:03:52.135Z,48.70
2019-04-07T18:06:40.346Z,49.60
2019-04-07T18:09:24.561Z,50.80
2019-04-07T18:12:10.345Z,49.30
2019-04-07T18:14:40.606Z,52.40
2019-04-07T18:17:16.879Z,52.80
2019-04-07T18:22:36.995Z,56.20
2019-04-07T18:25:16.270Z,57.50
2019-04-07T18:27:48.286Z,58.00
2019-04-07T18:30:32.477Z,58.70
2019-04-07T18:33:37.918Z,58.40
2019-04-07T18:36:13.843Z,58.70
2019-04-07T18:45:11.270Z,60.50
2019-04-07T18:47:56.767Z,61.00
2019-04-07T18:50:44.402Z,61.50
2019-04-07T18:53:14.773Z,62.30
2019-04-07T18:56:03.489Z,62.20
2019-04-07T18:58:48.640Z,62.80
2019-04-07T19:01:20.461Z,63.00
2019-04-07T19:03:53.365Z,63.30
2019-04-07T19:06:31.522Z,63.70
2019-04-07T19:09:08.195Z,64.90
2019-04-07T19:12:02.808Z,64.30
2019-04-07T19:14:40.316Z,64.30
2019-04-07T19:17:11.439Z,64.60
2019-04-07T19:19:42.012Z,64.90
2019-04-07T19:22:15.888Z,65.30
2019-04-07T19:24:43.931Z,65.30
2019-04-07T19:27:19.634Z,65.40
2019-04-07T19:30:05.798Z,65.90
2019-04-07T19:32:54.947Z,66.40
2019-04-07T19:35:40.443Z,66.50
2019-04-07T19:38:11.023Z,67.00
2019-04-07T19:40:48.332Z,67.10
2019-04-07T19:43:18.580Z,67.00
2019-04-07T19:45:52.595Z,67.30
2019-04-07T19:48:42.419Z,67.40
2019-04-07T19:51:14.350Z,67.60
2019-04-07T19:54:00.783Z,68.10
2019-04-07T19:56:39.892Z,68.10
2019-04-07T19:59:26.619Z,69.00
2019-04-07T20:02:08.518Z,68.80
2019-04-07T20:04:53.427Z,66.90
2019-04-07T20:07:22.330Z,71.10
2019-04-07T20:13:05.549Z,71.50
2019-04-07T20:15:45.057Z,71.80
2019-04-07T20:18:24.562Z,71.80
2019-04-07T20:20:58.981Z,71.90
2019-04-07T20:23:31.862Z,72.10
2019-04-07T20:26:13.581Z,72.10
2019-04-07T20:28:54.164Z,72.10
2019-04-07T20:31:34.306Z,72.00
2019-04-07T20:34:10.252Z,72.40
2019-04-07T20:36:54.892Z,72.10
2019-04-07T20:39:33.842Z,72.40
2019-04-07T20:42:08.525Z,72.30
2019-04-07T20:44:48.551Z,72.20
2019-04-07T20:47:33.211Z,71.90
2019-04-07T20:50:06.122Z,72.60
2019-04-07T20:52:36.233Z,73.40
2019-04-07T20:55:24.249Z,73.40
2019-04-07T20:58:16.053Z,73.70
2019-04-07T21:01:04.188Z,74.30
2019-04-07T21:03:51.394Z,74.50
2019-04-07T21:06:35.829Z,74.50
2019-04-07T21:09:11.366Z,74.80
2019-04-07T21:11:45.109Z,75.30
2019-04-07T21:14:28.510Z,75.00
2019-04-07T21:17:13.825Z,74.20
2019-04-07T21:19:47.580Z,75.30
2019-04-07T21:22:18.624Z,74.00
2019-04-07T21:25:05.359Z,74.00
2019-04-07T21:27:52.777Z,73.70
2019-04-07T21:30:37.345Z,73.90
2019-04-07T21:33:17.328Z,74.10
2019-04-07T21:35:55.538Z,74.00
2019-04-07T21:38:26.199Z,74.20
2019-04-07T21:40:57.795Z,75.30
2019-04-07T21:43:46.691Z,76.20
2019-04-07T21:46:33.431Z,76.90
2019-04-07T21:49:12.627Z,77.50
2019-04-07T21:51:45.973Z,77.60
2019-04-07T21:54:14.463Z,77.50
2019-04-07T21:57:02.914Z,76.60
2019-04-07T21:59:33.674Z,77.70
2019-04-07T22:02:09.256Z,78.50
2019-04-07T22:04:36.181Z,78.90
2019-04-07T22:07:06.297Z,79.10
2019-04-07T22:09:36.346Z,79.60
2019-04-07T22:12:04.813Z,79.70
2019-04-07T22:14:37.450Z,79.40
2019-04-07T22:17:04.153Z,80.30
2019-04-07T22:19:34.329Z,80.40
2019-04-07T22:22:03.045Z,79.40
2019-04-07T22:24:35.859Z,79.30
2019-04-07T22:27:04.583Z,79.40
2019-04-07T22:29:34.692Z,79.60
2019-04-07T22:32:03.379Z,79.90
2019-04-07T22:34:32.758Z,80.20
2019-04-07T22:37:02.597Z,80.60
2019-04-07T22:39:32.031Z,80.50
2019-04-07T22:42:00.613Z,80.50
2019-04-07T22:44:32.034Z,80.60
2019-04-07T22:47:00.486Z,80.10
2019-04-07T22:49:31.827Z,79.30
2019-04-07T22:52:18.942Z,79.10
2019-04-07T22:54:47.806Z,78.60
2019-04-07T22:57:16.277Z,74.90
2019-04-07T22:59:45.268Z,79.40
2019-04-07T23:02:13.824Z,79.70
2019-04-07T23:04:42.669Z,81.80
2019-04-07T23:07:11.712Z,82.70
2019-04-07T23:09:40.998Z,81.80
2019-04-07T23:12:10.573Z,81.60
2019-04-07T23:14:40.051Z,80.80
2019-04-07T23:17:08.594Z,80.70
2019-04-07T23:19:37.858Z,80.90
2019-04-07T23:22:06.445Z,81.70
2019-04-07T23:24:35.001Z,80.90
2019-04-07T23:27:04.135Z,80.50
2019-04-07T23:29:32.650Z,80.10
2019-04-07T23:32:01.847Z,78.20
2019-04-07T23:34:31.125Z,77.10
2019-04-07T23:36:59.760Z,80.60
2019-04-07T23:39:29.184Z,82.50
2019-04-07T23:41:58.593Z,82.00
2019-04-07T23:44:27.693Z,82.30
2019-04-07T23:46:57.105Z,82.60
2019-04-07T23:49:26.082Z,82.30
2019-04-07T23:51:55.254Z,81.90
2019-04-07T23:54:24.779Z,81.60
2019-04-07T23:56:54.095Z,81.90
2019-04-07T23:59:22.862Z,81.40
